Date,TemperatureHighF,TemperatureAvgF,TemperatureLowF,DewpointHighF,DewpointAvgF,DewpointLowF,HumidityHigh,HumidityAvg,HumidityLow,PressureMaxIn,PressureMinIn,WindSpeedMaxMPH,WindSpeedAvgMPH,GustSpeedMaxMPH,PrecipitationSumIn
2013-1-1,28.0,25.4,22.0,24.0,21.2,18.0,86,84,79,29.69,29.11,1,0,3,0.00
2013-1-2,25.0,19.8,16.0,21.0,16.0,11.0,88,85,82,29.51,29.13,1,0,2,0.00
2013-1-3,25.0,21.7,17.0,19.0,16.2,12.0,84,79,76,29.61,29.50,0,0,3,0.00
2013-1-4,21.0,14.7,8.0,16.0,9.6,3.0,83,80,76,29.79,29.59,0,0,2,0.00
2013-1-5,12.0,9.7,7.0,8.0,5.5,3.0,85,83,80,29.78,29.35,0,0,2,0.00
2013-1-6,16.0,11.8,8.0,11.0,7.5,4.0,85,82,77,29.36,29.20,0,0,1,0.00
2013-1-7,14.0,5.0,-4.0,11.0,0.3,-9.0,86,80,76,29.47,29.12,1,0,2,0.00
2013-1-8,1.0,-3.6,-9.0,-3.0,-8.6,-14.0,81,79,74,30.04,29.45,0,0,1,0.00
2013-1-9,0.0,-3.9,-5.0,-5.0,-8.9,-10.0,81,79,77,30.11,29.85,0,0,0,0.00
2013-1-10,12.0,7.0,-5.0,8.0,2.9,-10.0,85,83,79,30.03,29.83,0,0,0,0.00
2013-1-11,16.0,11.7,3.0,13.0,8.2,0.0,92,85,82,30.14,29.82,0,0,0,0.00
2013-1-12,24.0,17.9,13.0,21.0,14.8,9.0,89,87,85,30.14,29.68,0,0,0,0.00
2013-1-13,32.0,29.7,22.0,30.0,27.6,19.0,92,92,89,29.70,29.48,0,0,0,0.00
2013-1-14,36.0,32.9,30.0,34.0,30.8,23.0,93,92,82,29.80,29.22,6,1,12,0.00
2013-1-15,30.0,14.4,7.0,25.0,9.6,2.0,85,81,74,30.17,29.78,6,1,12,0.00
2013-1-16,11.0,7.2,4.0,7.0,3.1,-1.0,85,83,80,30.17,29.80,0,0,2,0.00
2013-1-17,13.0,4.2,-8.0,8.0,-1.5,-15.0,86,77,70,30.12,29.75,1,0,5,0.00
2013-1-18,-8.0,-12.5,-16.0,-14.0,-18.3,-22.0,77,75,70,30.38,30.11,0,0,0,0.00
2013-1-19,4.0,-2.4,-12.0,-2.0,-8.1,-18.0,79,76,73,30.38,30.06,0,0,1,0.00
2013-1-20,12.0,7.2,-1.0,8.0,2.8,-7.0,85,82,76,30.07,29.98,0,0,1,0.00
2013-1-21,10.0,6.9,-2.0,6.0,2.3,-7.0,84,81,76,30.09,29.98,0,0,1,0.00
2013-1-22,8.0,-0.1,-3.0,2.0,-4.9,-8.0,82,80,75,29.99,29.71,0,0,1,0.00
2013-1-23,9.0,3.3,-3.0,4.0,-1.9,-8.0,83,79,66,29.71,29.57,0,0,2,0.00
2013-1-24,5.0,-1.5,-12.0,-4.0,-9.6,-19.0,73,68,63,29.79,29.62,0,0,2,0.00
2013-1-25,-12.0,-21.6,-30.0,-18.0,-28.1,-37.0,74,71,68,29.97,29.79,0,0,1,0.00
2013-1-26,-23.0,-29.3,-34.0,-30.0,-36.0,-41.0,71,69,67,30.10,29.97,0,0,1,0.00
2013-1-27,-29.0,-35.8,-38.0,-36.0,-42.8,-45.0,68,66,65,30.54,30.10,0,0,1,0.00
2013-1-28,-17.0,-30.7,-38.0,-23.0,-37.4,-45.0,74,68,65,30.56,30.02,0,0,1,0.00
2013-1-29,-6.0,-10.8,-18.0,-12.0,-16.6,-24.0,77,75,69,30.03,29.85,0,0,1,0.00
2013-1-30,9.0,0.6,-7.0,3.0,-4.9,-12.0,79,77,73,29.89,29.65,0,0,2,0.00
2013-1-31,12.0,9.3,7.0,7.0,4.9,3.0,84,81,77,30.06,29.73,1,0,2,0.00
2013-2-1,11.0,3.6,-2.0,7.0,-0.9,-7.0,84,81,75,30.12,29.84,0,0,1,0.00
2013-2-2,20.0,8.9,2.0,15.0,4.6,-2.0,85,82,74,29.85,29.49,0,0,1,0.00
2013-2-3,16.0,10.3,7.0,10.0,5.9,2.0,92,83,75,29.49,29.28,1,0,3,0.00
2013-2-4,15.0,11.0,6.0,11.0,7.0,1.0,92,84,81,29.62,29.43,0,0,2,0.00
2013-2-5,9.0,4.1,0.0,5.0,0.0,-5.0,84,82,80,29.62,29.57,0,0,1,0.00
2013-2-6,4.0,0.6,-4.0,2.0,-3.6,-9.0,92,81,80,29.69,29.55,0,0,0,0.00
2013-2-7,11.0,3.5,-4.0,7.0,-0.8,-9.0,85,82,79,29.66,29.27,0,0,1,0.00
2013-2-8,8.0,4.8,0.0,4.0,0.5,-4.0,84,81,79,29.78,29.29,0,0,0,0.00
2013-2-9,30.0,15.8,4.0,25.0,12.1,-1.0,89,85,79,29.77,29.00,1,0,3,0.01
2013-2-10,32.0,21.0,7.0,28.0,17.1,3.0,89,85,77,29.45,28.93,1,0,9,0.01
2013-2-11,21.0,16.3,6.0,17.0,12.7,1.0,87,85,81,29.68,29.45,0,0,2,0.00
2013-2-12,16.0,5.8,1.0,11.0,1.6,-3.0,92,82,77,29.75,29.68,1,0,3,0.00
2013-2-13,5.0,4.1,4.0,1.0,0.1,0.0,84,83,82,29.75,29.74,0,0,0,0.00
2013-2-16,6.0,-3.5,-11.0,-1.0,-9.1,-17.0,80,76,71,30.06,29.84,1,0,3,0.00
2013-2-17,0.0,-4.1,-8.0,-5.0,-9.3,-13.0,82,77,75,30.12,29.78,1,0,3,0.00
2013-2-18,-6.0,-14.7,-23.0,-12.0,-21.2,-29.0,77,71,65,30.21,30.09,1,0,3,0.00
2013-2-19,4.0,-15.1,-29.0,-6.0,-22.1,-36.0,76,70,61,30.09,29.55,1,0,4,0.00
2013-2-20,6.0,-5.9,-18.0,-3.0,-12.6,-24.0,79,72,61,29.55,29.34,1,0,3,0.00
2013-2-21,7.0,0.5,-3.0,-3.0,-5.9,-11.0,79,74,61,29.39,29.29,1,0,4,0.00
2013-2-22,-2.0,-6.9,-17.0,-9.0,-13.2,-23.0,76,74,70,29.57,29.32,1,0,3,0.00
2013-2-23,5.0,-5.4,-16.0,-3.0,-11.7,-22.0,77,73,67,29.52,29.27,1,0,5,0.00
2013-2-24,6.0,-4.0,-13.0,-3.0,-10.5,-19.0,79,73,65,29.65,29.29,1,0,3,0.00
2013-2-25,25.0,1.2,-9.0,13.0,-5.1,-15.0,82,74,58,29.72,29.64,2,0,4,0.00
2013-2-26,18.0,7.6,4.0,11.0,2.7,-1.0,83,80,74,29.72,29.59,1,0,3,0.00
2013-2-27,37.0,18.9,7.0,22.0,10.9,2.0,81,72,47,29.41,29.28,1,0,4,0.00
2013-2-28,36.0,19.1,11.0,21.0,10.9,4.0,78,70,49,29.44,29.33,2,0,3,0.01
2013-3-1,15.0,10.2,6.0,9.0,4.9,0.0,82,79,76,29.95,29.43,1,0,3,0.01
2013-3-2,21.0,8.8,1.0,13.0,3.0,-4.0,85,77,68,30.10,29.95,1,0,3,0.00
2013-3-3,24.0,8.8,-2.0,14.0,2.8,-7.0,84,76,65,30.37,30.10,1,0,3,0.00
2013-3-4,33.0,10.7,1.0,19.0,4.6,-4.0,85,77,55,30.41,30.23,1,0,3,0.00
2013-3-5,35.0,20.7,12.0,20.0,12.0,6.0,81,70,45,30.22,29.88,1,0,3,0.01
2013-3-6,23.0,13.1,6.0,10.0,5.2,0.0,79,70,57,29.88,29.80,1,0,4,0.01
2013-3-7,39.0,21.4,7.0,23.0,13.0,2.0,84,71,52,29.82,29.36,2,0,5,0.00
2013-3-8,43.0,31.2,23.0,30.0,22.6,17.0,79,71,53,29.57,29.41,1,0,4,0.12
2013-3-9,40.0,28.3,17.0,27.0,21.1,12.0,84,75,57,29.95,29.57,2,0,5,0.18
2013-3-10,30.0,22.2,11.0,26.0,15.7,5.0,87,76,58,30.25,29.95,3,0,9,0.09
2013-3-11,25.0,13.6,6.0,15.0,6.9,1.0,83,75,61,30.52,30.24,2,0,4,0.01
2013-3-12,26.0,11.3,-1.0,9.0,1.2,-7.0,79,65,40,30.53,30.30,2,0,4,0.00
2013-3-13,6.0,1.8,-1.0,-3.0,-9.6,-17.0,69,59,48,30.30,30.19,2,0,9,0.00
2013-3-14,22.0,5.1,-4.0,0.0,-11.3,-18.0,54,46,36,30.20,30.09,2,0,7,0.00
2013-3-15,28.0,4.7,-5.0,2.0,-9.4,-15.0,63,53,30,30.13,29.89,2,0,13,0.00
2013-3-16,30.0,8.3,-3.0,9.0,-4.2,-11.0,69,58,35,30.13,29.94,2,0,6,0.01
2013-3-17,19.0,10.6,4.0,3.0,-0.5,-5.0,70,61,48,30.24,30.10,2,0,4,0.01
2013-3-18,20.0,6.2,-3.0,3.0,-3.6,-9.0,76,65,46,30.10,29.95,2,0,5,0.00
2013-3-19,18.0,5.4,-5.0,1.0,-5.4,-12.0,75,61,43,30.08,29.98,3,0,7,0.00
2013-3-20,13.0,0.4,-13.0,-1.0,-8.9,-20.0,76,64,52,29.98,29.87,2,0,6,0.00
2013-3-21,22.0,10.3,0.0,11.0,2.2,-5.0,80,70,48,30.05,29.92,3,0,7,0.00
2013-3-22,32.0,20.6,11.0,17.0,8.0,2.0,70,59,41,29.97,29.63,2,0,6,0.00
2013-3-23,25.0,5.4,-7.0,17.0,-2.9,-14.0,82,68,52,30.01,29.63,7,1,13,0.00
2013-3-24,11.0,0.4,-11.0,3.0,-7.0,-18.0,79,70,56,29.99,29.71,2,0,3,0.00
2013-3-25,9.0,5.5,3.0,3.0,-0.6,-4.0,80,76,69,29.72,29.57,3,1,7,0.00
2013-3-26,6.0,0.1,-11.0,-4.0,-8.8,-20.0,76,65,50,30.15,29.71,4,2,10,0.00
2013-3-27,13.0,-4.4,-19.0,-3.0,-14.5,-26.0,75,62,46,30.20,30.06,3,0,5,0.00
2013-3-28,35.0,6.6,-8.0,18.0,-3.0,-14.0,77,66,35,30.06,29.84,2,0,5,0.07
2013-3-29,45.0,25.2,15.0,26.0,14.4,8.0,76,64,35,29.85,29.79,1,0,4,0.21
2013-3-30,39.0,25.3,11.0,25.0,13.7,-99.9,79,65,45,30.14,29.85,3,0,5,0.11
2013-3-31,39.0,31.3,23.0,29.0,22.9,17.0,83,71,60,30.19,30.09,2,0,5,0.07
2013-4-1,40.0,31.2,23.0,27.0,23.3,17.0,88,73,49,30.09,30.00,1,0,5,0.02
2013-4-2,37.0,26.2,15.0,21.0,15.5,9.0,78,65,46,30.15,30.03,2,0,5,0.01
2013-4-3,36.0,22.9,14.0,16.0,9.7,2.0,75,58,34,30.41,30.14,2,0,9,0.00
2013-4-4,33.0,18.7,9.0,11.0,1.8,-4.0,60,48,31,30.43,30.03,3,0,8,0.00
2013-4-5,22.0,14.1,7.0,4.0,-2.3,-6.0,55,47,38,30.03,29.68,2,1,7,0.00
2013-4-6,24.0,7.9,-5.0,6.0,-5.3,-13.0,71,56,37,29.69,29.54,2,0,7,0.00
2013-4-7,9.0,7.1,1.0,4.0,-0.5,-8.0,79,71,52,29.85,29.57,2,0,4,0.00
2013-4-8,14.0,4.4,-7.0,8.0,-1.4,-13.0,81,77,71,29.87,29.41,2,0,5,0.00
2013-4-9,13.0,9.6,7.0,8.0,4.4,2.0,82,80,74,29.42,29.09,3,0,9,0.00
2013-4-10,14.0,7.8,1.0,3.0,-1.1,-9.0,76,67,51,29.90,29.38,4,1,9,0.00
2013-4-11,8.0,-0.8,-7.0,-1.0,-8.7,-14.0,72,69,65,30.18,29.88,0,0,1,0.00
2013-4-12,23.0,8.8,-7.0,7.0,-2.0,-13.0,79,62,46,30.29,30.17,3,1,7,0.09
2013-4-13,27.0,12.9,-3.0,7.0,0.2,-9.0,75,58,39,30.42,30.29,3,1,6,0.04
2013-4-14,30.0,17.9,4.0,19.0,8.4,-3.0,73,66,53,30.51,30.42,2,0,6,0.02
2013-4-15,34.0,23.5,15.0,15.0,9.5,5.0,77,56,36,30.48,30.40,3,0,8,0.03
2013-4-16,31.0,21.8,10.0,16.0,8.7,2.0,68,57,45,30.40,30.20,2,0,6,0.01
2013-4-17,33.0,23.7,13.0,15.0,10.1,4.0,71,56,43,30.33,30.19,4,0,8,0.01
2013-4-18,35.0,23.9,16.0,15.0,8.6,5.0,62,52,39,30.38,30.33,2,0,10,0.01
2013-4-19,42.0,25.8,13.0,22.0,10.9,5.0,72,55,32,30.43,30.35,4,1,6,0.00
2013-4-20,44.0,34.0,19.0,23.0,14.9,11.0,75,48,30,30.35,30.24,3,1,6,0.00
2013-4-21,45.0,30.8,17.0,23.0,15.4,11.0,78,56,31,30.32,30.27,3,1,6,0.00
2013-4-22,47.0,32.3,18.0,27.0,16.7,11.0,76,56,30,30.43,30.32,3,1,7,0.00
2013-4-23,48.0,36.3,23.0,23.0,19.4,16.0,80,53,32,30.36,30.14,5,1,12,0.00
2013-4-24,38.0,36.0,30.0,26.0,22.6,18.0,74,59,45,30.14,29.93,4,1,10,0.06
2013-4-25,35.0,27.0,20.0,23.0,8.2,-1.0,74,46,32,30.05,29.95,3,0,11,0.01
2013-4-26,31.0,23.2,10.0,23.0,13.5,3.0,83,67,49,29.96,29.57,4,1,7,0.00
2013-4-27,32.0,26.7,20.0,23.0,12.4,-1.0,84,58,28,30.10,29.61,4,1,9,0.00
2013-4-28,36.0,24.4,8.0,18.0,7.8,0.0,75,50,37,30.13,30.04,4,1,10,0.00
2013-4-29,33.0,28.2,19.0,27.0,20.2,13.0,87,72,54,30.08,30.03,5,1,12,0.00
2013-4-30,36.0,31.4,28.0,28.0,26.2,22.0,89,81,62,30.03,29.83,3,0,6,0.18
2013-5-1,38.0,31.1,25.0,26.0,21.7,13.0,84,69,49,29.83,29.61,5,1,10,0.06
2013-5-2,38.0,29.6,21.0,26.0,18.2,11.0,76,63,53,29.87,29.65,3,1,7,0.01
2013-5-3,41.0,34.0,28.0,33.0,27.3,23.0,87,76,64,29.90,29.79,4,1,9,0.02
2013-5-4,36.0,29.0,23.0,26.0,21.9,19.0,87,75,53,29.94,29.85,3,0,7,0.02
2013-5-5,40.0,31.8,21.0,21.0,17.2,13.0,81,57,35,30.09,29.93,6,2,12,0.00
2013-5-6,44.0,33.1,19.0,24.0,16.9,12.0,80,54,30,30.16,30.07,6,2,10,0.00
2013-5-7,43.0,33.3,26.0,24.0,21.8,19.0,78,64,38,30.19,30.16,1,0,4,0.00
2013-5-8,51.0,43.4,27.0,26.0,22.3,20.0,77,46,30,30.29,30.19,5,2,10,0.00
2013-5-9,60.0,41.6,28.0,30.0,24.9,22.0,82,57,25,30.32,30.15,4,0,7,0.00
2013-5-10,59.0,47.0,33.0,30.0,25.4,-99.9,77,49,26,30.17,29.91,4,1,8,0.00
2013-5-11,60.0,48.9,36.0,31.0,28.0,-99.9,70,48,31,29.91,29.62,5,1,9,0.00
2013-5-12,53.0,45.7,38.0,32.0,29.4,27.0,69,53,37,29.62,29.42,5,2,13,0.00
2013-5-13,41.0,31.4,23.0,28.0,9.3,3.0,59,39,32,29.63,29.46,5,2,11,0.00
2013-5-14,43.0,33.2,23.0,19.0,15.0,12.0,70,48,34,29.63,29.57,4,1,7,0.00
2013-5-15,51.0,37.8,22.0,22.0,18.6,15.0,76,48,29,29.66,29.58,5,1,13,0.00
2013-5-16,54.0,38.9,26.0,27.0,9.3,-99.9,76,51,29,29.62,29.37,5,1,10,0.00
2013-5-17,45.0,35.7,28.0,33.0,25.2,-99.9,89,76,49,29.62,29.34,4,1,9,0.00
2013-5-18,34.0,27.8,23.0,24.0,12.1,7.0,86,54,33,30.14,29.60,5,2,12,0.01
2013-5-19,46.0,35.0,23.0,17.0,12.0,8.0,61,40,28,30.53,30.12,5,1,10,0.01
2013-5-20,57.0,41.3,26.0,22.0,18.7,16.0,70,44,22,30.59,30.38,4,1,8,0.01
2013-5-21,64.0,46.1,28.0,25.0,20.3,18.0,70,41,18,30.41,30.09,3,1,7,0.00
2013-5-22,69.0,53.1,35.0,31.0,26.6,22.0,63,38,21,30.09,29.92,6,1,12,0.00
2013-5-23,63.0,52.2,37.0,41.0,33.7,26.0,68,50,36,30.07,29.96,4,1,8,0.00
2013-5-24,71.0,57.4,39.0,42.0,37.3,33.0,84,51,29,30.10,29.93,3,0,8,0.00
2013-5-25,76.0,62.7,44.0,37.0,33.1,30.0,63,36,19,29.94,29.77,5,1,8,0.00
2013-5-26,79.0,63.7,43.0,43.0,35.3,31.0,63,38,21,29.84,29.73,3,1,9,0.00
2013-5-27,84.0,67.8,50.0,45.0,41.0,38.0,64,40,24,29.84,29.71,4,1,10,0.00
2013-5-28,85.0,68.1,52.0,45.0,40.6,38.0,62,40,21,29.75,29.64,3,0,7,0.00
2013-5-29,87.0,69.8,53.0,42.0,38.7,35.0,59,35,18,29.66,29.60,3,0,11,0.00
2013-5-30,84.0,69.3,52.0,45.0,39.5,32.0,61,37,16,29.80,29.65,2,0,7,0.00
2013-5-31,84.0,68.2,54.0,49.0,42.2,31.0,72,44,16,29.93,29.80,4,1,11,0.00
2013-6-1,82.0,66.9,51.0,45.0,40.4,36.0,63,40,26,30.03,29.92,3,0,6,0.00
2013-6-2,83.0,67.0,50.0,48.0,43.3,39.0,75,46,26,30.02,29.82,3,1,9,0.00
2013-6-3,63.0,57.3,53.0,51.0,47.7,45.0,87,71,54,29.88,29.61,2,0,6,0.05
2013-6-4,60.0,53.7,48.0,51.0,47.4,44.0,90,80,57,29.62,29.51,2,0,6,0.27
2013-6-5,56.0,51.4,48.0,51.0,46.5,44.0,91,83,71,29.83,29.57,6,1,10,0.33
2013-6-6,64.0,53.7,44.0,54.0,47.5,41.0,92,81,52,29.85,29.75,2,0,5,0.23
2013-6-7,72.0,58.6,47.0,50.0,45.7,42.0,90,66,37,29.88,29.77,2,0,5,0.02
2013-6-8,74.0,62.1,51.0,51.0,46.5,43.0,83,59,35,30.07,29.88,4,0,7,0.01
2013-6-9,67.0,58.6,49.0,48.0,44.5,40.0,84,61,42,30.18,30.06,4,1,8,0.00
2013-6-10,59.0,54.5,50.0,47.0,43.2,41.0,86,66,52,30.23,30.16,2,0,6,0.00
2013-6-11,67.0,54.6,40.0,47.0,42.4,36.0,88,66,41,30.23,30.09,3,0,5,0.00
2013-6-12,70.0,57.5,49.0,46.0,39.1,35.0,69,53,28,30.10,30.02,0,0,2,0.00
2013-6-13,79.0,63.0,45.0,47.0,39.5,34.0,79,48,21,30.10,30.03,2,0,8,0.00
2013-6-14,85.0,67.5,51.0,50.0,42.5,37.0,74,46,21,30.14,30.06,2,0,7,0.00
2013-6-15,84.0,70.7,54.0,52.0,46.0,41.0,74,44,26,30.22,30.12,1,0,5,0.00
2013-6-16,88.0,74.7,60.0,57.0,53.5,49.0,75,50,31,30.21,30.11,2,0,6,0.00
2013-6-17,89.0,74.0,61.0,56.0,47.5,38.0,69,45,18,30.18,30.07,2,0,7,0.00
2013-6-18,90.0,72.8,60.0,50.0,44.9,42.0,64,40,22,30.08,29.85,2,1,7,0.00
2013-6-19,88.0,74.5,59.0,52.0,47.0,43.0,63,42,22,29.88,29.76,4,1,10,0.00
2013-6-20,85.0,63.4,55.0,53.0,48.5,45.0,71,60,27,29.89,29.79,2,0,4,0.00
2013-6-21,63.0,62.3,62.0,56.0,55.0,54.0,81,77,73,29.88,29.86,0,0,2,0.00
2013-6-22,75.0,65.3,48.0,51.0,45.8,41.0,84,53,34,29.85,29.67,3,1,7,0.02
2013-6-23,85.0,67.9,53.0,53.0,46.9,40.0,76,52,22,29.68,29.54,3,0,6,0.00
2013-6-24,90.0,73.2,60.0,56.0,50.6,46.0,74,49,25,29.62,29.56,3,0,6,0.00
2013-6-25,94.0,78.4,63.0,60.0,54.3,51.0,76,46,25,29.64,29.57,2,0,6,0.00
2013-6-26,91.0,76.5,64.0,60.0,55.4,53.0,76,51,29,29.67,29.62,2,0,5,0.00
2013-6-27,82.0,73.7,65.0,64.0,58.9,53.0,89,61,47,29.95,29.66,2,0,7,0.05
2013-6-28,80.0,71.2,64.0,60.0,56.3,53.0,77,61,42,30.01,29.94,2,0,4,0.01
2013-6-29,77.0,69.6,60.0,60.0,57.2,54.0,85,66,45,29.97,29.86,1,0,3,0.01
2013-6-30,88.0,72.4,59.0,61.0,55.3,47.0,80,58,33,29.86,29.60,4,1,7,0.00
2013-7-1,82.0,68.4,58.0,56.0,51.0,46.0,81,56,33,29.62,29.41,3,0,10,0.04
2013-7-2,72.0,60.2,51.0,54.0,47.8,43.0,89,67,35,29.68,29.48,5,0,9,0.30
2013-7-3,67.0,57.6,47.0,52.0,46.7,43.0,91,69,44,29.88,29.68,1,0,5,0.25
2013-7-4,67.0,58.3,49.0,49.0,43.8,39.0,82,61,38,29.98,29.84,3,1,9,0.00
2013-7-5,69.0,57.6,46.0,49.0,45.2,42.0,89,65,39,30.02,29.92,3,0,5,0.01
2013-7-6,74.0,57.5,47.0,50.0,45.4,41.0,85,67,34,29.93,29.71,3,0,6,0.01
2013-7-7,73.0,63.9,50.0,52.0,47.0,43.0,79,56,36,29.71,29.49,2,0,6,0.00
2013-7-8,63.0,55.7,49.0,55.0,48.0,-99.9,91,78,62,29.69,29.51,1,0,3,0.26
2013-7-9,64.0,57.2,51.0,52.0,49.5,47.0,92,77,58,29.96,29.69,3,0,6,0.06
2013-7-10,58.0,54.2,50.0,51.0,47.2,-99.9,91,80,70,30.02,29.94,1,0,4,0.29
2013-7-11,54.0,53.0,53.0,51.0,50.0,50.0,91,90,88,30.04,30.02,0,0,0,0.29
2013-7-12,79.0,73.6,61.0,51.0,45.5,38.0,69,38,24,30.02,29.93,1,1,6,0.00
2013-7-13,85.0,71.9,54.0,53.0,46.4,44.0,80,46,25,29.99,29.95,2,0,5,0.00
2013-7-14,87.0,71.9,53.0,56.0,51.0,45.0,80,52,27,30.09,29.96,3,1,6,0.00
2013-7-15,81.0,70.4,62.0,61.0,54.2,51.0,85,59,38,30.16,30.06,2,0,6,0.01
2013-7-16,68.0,65.1,61.0,56.0,53.5,50.0,78,66,59,30.14,30.07,2,0,6,0.01
2013-7-17,70.0,64.0,59.0,55.0,51.7,48.0,82,66,48,30.08,30.01,2,0,5,0.00
2013-7-18,76.0,64.1,58.0,59.0,52.4,48.0,91,68,41,30.11,30.01,3,0,6,0.62
2013-7-19,60.0,58.9,57.0,57.0,55.9,52.0,92,90,82,30.08,30.03,3,1,8,0.97
2013-7-20,63.0,57.0,54.0,55.0,50.8,-99.9,91,82,65,30.08,30.05,3,1,7,0.11
2013-7-21,68.0,60.2,53.0,54.0,50.8,47.0,89,72,51,30.14,30.06,3,0,6,0.03
2013-7-22,73.0,60.8,47.0,57.0,50.1,43.0,90,70,47,30.19,30.08,2,0,5,0.00
2013-7-23,79.0,66.1,55.0,60.0,54.1,50.0,85,68,44,30.10,29.99,3,0,5,0.00
2013-7-24,74.0,65.4,58.0,60.0,56.4,53.0,84,73,59,30.00,29.93,3,0,6,0.00
2013-7-25,74.0,66.5,60.0,57.0,52.2,46.0,80,62,37,30.03,29.93,3,0,5,0.00
2013-7-26,74.0,63.0,50.0,58.0,50.5,45.0,86,66,43,30.16,30.03,4,0,7,0.00
2013-7-27,79.0,66.3,53.0,60.0,55.1,48.0,88,69,48,30.23,30.15,3,0,6,0.00
2013-7-28,86.0,71.6,56.0,61.0,55.6,51.0,87,61,33,30.18,30.02,3,0,7,0.00
2013-7-29,79.0,72.5,65.0,60.0,55.5,52.0,72,56,40,30.10,30.03,3,1,8,0.00
2013-7-30,77.0,66.8,53.0,56.0,52.6,48.0,85,63,42,30.17,30.08,3,1,7,0.00
2013-7-31,81.0,66.0,50.0,56.0,51.2,45.0,86,62,35,30.15,29.99,2,0,6,0.00
2013-8-1,87.0,72.2,54.0,57.0,52.5,49.0,83,54,30,30.01,29.79,2,0,6,0.00
2013-8-2,84.0,70.3,59.0,57.0,51.3,47.0,76,54,28,29.83,29.69,3,0,7,0.00
2013-8-3,84.0,69.2,57.0,54.0,48.9,45.0,69,51,27,29.70,29.61,2,0,10,0.00
2013-8-4,75.0,66.4,54.0,52.0,47.4,44.0,76,52,36,29.87,29.69,2,0,7,0.00
2013-8-5,79.0,64.6,50.0,53.0,48.4,45.0,86,59,32,29.91,29.83,3,0,5,0.00
2013-8-6,82.0,65.9,52.0,54.0,47.4,44.0,76,55,27,29.92,29.78,3,0,7,0.00
2013-8-7,87.0,69.4,53.0,54.0,49.2,45.0,78,53,26,29.79,29.58,2,0,6,0.00
2013-8-8,82.0,68.3,56.0,54.0,47.5,43.0,74,51,25,29.65,29.57,1,0,5,0.00
2013-8-9,71.0,63.1,54.0,55.0,47.6,45.0,83,58,39,29.67,29.61,1,0,4,0.01
2013-8-10,68.0,60.5,53.0,55.0,50.4,46.0,89,71,49,29.96,29.66,1,0,3,0.01
2013-8-11,78.0,63.6,47.0,53.0,48.3,42.0,85,61,35,30.03,29.91,2,0,4,0.00
2013-8-12,76.0,64.8,51.0,59.0,53.6,46.0,84,68,55,30.03,29.93,2,0,4,0.00
2013-8-13,79.0,65.8,54.0,61.0,54.5,-99.9,90,71,50,29.96,29.79,1,0,4,0.00
2013-8-14,68.0,63.5,58.0,57.0,54.5,51.0,88,73,59,29.84,29.79,0,0,2,0.06
2013-8-15,65.0,58.9,53.0,59.0,50.7,-99.9,90,81,76,29.84,29.65,1,0,4,0.35
2013-8-16,68.0,59.3,52.0,57.0,51.9,-99.9,93,81,61,29.67,29.59,1,0,4,0.30
2013-8-17,73.0,60.4,48.0,56.0,50.3,-99.9,91,72,48,29.60,29.46,1,0,4,0.00
2013-8-18,71.0,61.8,54.0,57.0,52.1,49.0,84,71,53,29.52,29.46,2,0,6,0.00
2013-8-19,65.0,56.2,51.0,53.0,44.7,-99.9,90,76,50,29.62,29.52,3,0,7,0.07
2013-8-20,56.0,52.1,49.0,52.0,48.8,-99.9,92,91,85,29.75,29.61,2,0,5,1.08
2013-8-21,61.0,51.5,45.0,49.0,45.5,41.0,93,81,50,29.78,29.67,3,0,5,0.40
2013-8-22,66.0,54.5,43.0,54.0,45.9,39.0,90,75,51,29.68,29.55,2,0,4,0.03
2013-8-23,56.0,52.9,49.0,53.0,50.4,46.0,92,91,88,29.65,29.49,1,0,3,0.76
2013-8-24,60.0,49.8,42.0,47.0,40.2,-99.9,92,73,41,29.90,29.65,1,0,5,0.03
2013-8-25,62.0,46.3,33.0,39.0,34.7,30.0,90,68,37,29.90,29.73,2,0,7,0.00
2013-8-26,66.0,48.3,35.0,40.0,36.1,31.0,89,67,34,29.80,29.74,1,0,5,0.00
2013-8-27,51.0,42.7,38.0,40.0,37.0,34.0,88,80,64,29.79,29.76,1,0,3,0.00
2013-8-28,58.0,54.0,49.0,49.0,46.2,43.0,90,75,57,29.69,29.63,2,0,6,0.04
2013-8-29,55.0,51.1,48.0,51.0,47.4,44.0,91,87,83,29.82,29.62,1,0,2,0.10
2013-8-30,56.0,51.1,48.0,49.0,45.3,39.0,92,81,56,29.93,29.82,2,0,4,0.13
2013-8-31,51.0,44.6,39.0,43.0,33.9,-99.9,85,68,43,29.96,29.88,2,0,4,0.02
2013-9-1,52.0,43.4,35.0,43.0,35.7,31.0,87,75,53,29.89,29.64,0,0,2,0.01
2013-9-2,58.0,51.2,45.0,55.0,48.4,42.0,93,90,84,29.65,29.35,0,0,2,0.35
2013-9-3,69.0,55.3,48.0,58.0,50.7,46.0,93,85,53,29.39,29.16,5,0,13,0.07
2013-9-4,59.0,51.3,44.0,52.0,47.1,41.0,93,86,65,29.62,29.31,3,0,6,0.09
2013-9-5,60.0,50.4,41.0,51.0,44.6,38.0,92,81,61,29.93,29.62,1,0,4,0.01
2013-9-6,52.0,46.2,39.0,48.0,42.6,36.0,92,87,79,29.97,29.44,0,0,2,0.09
2013-9-7,54.0,48.0,43.0,51.0,45.0,-99.9,93,91,90,29.64,29.44,0,0,2,0.08
2013-9-8,53.0,49.9,47.0,50.0,47.6,45.0,93,92,88,29.76,29.44,2,0,4,0.30
2013-9-9,63.0,51.0,41.0,51.0,46.2,39.0,94,84,61,29.78,29.65,1,0,5,0.06
2013-9-10,69.0,53.4,45.0,52.0,45.6,41.0,90,77,42,29.67,29.62,1,0,4,0.00
2013-9-11,52.0,48.5,45.0,49.0,45.5,41.0,93,89,81,29.77,29.54,2,0,6,0.89
2013-9-12,61.0,50.7,40.0,54.0,46.3,38.0,93,86,61,29.91,29.75,2,0,6,0.29
2013-9-13,51.0,45.9,38.0,48.0,43.1,35.0,92,90,84,29.91,29.80,0,0,1,0.03
2013-9-14,54.0,47.2,37.0,47.0,41.8,-99.9,93,84,59,30.03,29.91,2,0,5,0.14
2013-9-15,54.0,43.7,31.0,40.0,35.5,28.0,92,74,53,30.08,29.94,2,0,5,0.01
2013-9-16,57.0,42.0,29.0,34.0,29.9,25.0,89,65,36,29.95,29.66,2,0,6,0.00
2013-9-17,44.0,38.4,32.0,30.0,26.5,24.0,77,62,51,29.66,29.59,1,0,3,0.00
2013-9-18,37.0,34.6,31.0,30.0,28.4,27.0,88,78,68,29.70,29.62,0,0,2,0.05
2013-9-19,41.0,33.0,26.0,29.0,26.9,23.0,90,79,58,29.69,29.55,3,0,5,0.02
2013-9-20,38.0,29.4,20.0,28.0,24.2,16.0,89,81,63,29.56,29.17,3,0,5,0.01
2013-9-21,43.0,32.4,23.0,27.0,22.1,-99.9,86,68,47,29.18,29.09,2,0,5,0.01
2013-9-22,33.0,31.4,29.0,29.0,25.8,22.0,90,80,65,29.47,29.18,1,0,5,0.01
2013-9-23,37.0,30.8,25.0,30.0,26.0,22.0,89,83,63,29.83,29.46,1,0,3,0.08
2013-9-24,42.0,33.5,27.0,29.0,26.0,24.0,88,75,53,29.98,29.72,2,0,6,0.01
2013-9-25,58.0,44.9,36.0,41.0,34.5,25.0,82,68,47,29.72,29.35,1,0,5,0.01
2013-9-26,47.0,41.3,33.0,40.0,36.1,30.0,89,82,72,29.60,29.29,0,0,2,0.01
2013-9-27,60.0,44.3,35.0,40.0,35.3,32.0,90,74,42,29.31,29.13,3,0,7,0.00
2013-9-28,48.0,40.3,36.0,40.0,34.3,-99.9,90,81,65,29.29,29.21,2,0,4,0.09
2013-9-29,42.0,38.4,33.0,38.0,34.8,30.0,92,87,71,29.58,29.29,1,0,3,0.09
2013-9-30,41.0,39.0,37.0,34.0,30.4,29.0,82,72,62,29.76,29.58,0,0,4,0.00
2013-10-1,38.0,36.4,34.0,32.0,31.4,30.0,87,82,78,29.88,29.87,1,0,3,0.01
2013-10-2,49.0,38.6,33.0,36.0,32.5,30.0,89,79,57,29.89,29.80,2,0,3,0.01
2013-10-3,52.0,40.2,32.0,38.0,32.6,29.0,90,76,49,29.81,29.57,1,0,4,0.00
2013-10-4,39.0,35.1,29.0,34.0,30.5,25.0,88,83,79,29.79,29.56,1,0,3,0.00
2013-10-5,48.0,35.5,27.0,35.0,30.0,24.0,90,81,59,29.80,29.63,2,0,5,0.00
2013-10-6,44.0,36.9,32.0,33.0,30.8,27.0,88,79,61,29.67,29.61,2,0,4,0.00
2013-10-7,36.0,33.7,29.0,33.0,30.8,26.0,92,89,85,29.81,29.67,1,0,5,0.01
2013-10-8,51.0,40.5,28.0,37.0,31.7,25.0,90,72,55,29.70,28.94,2,0,7,0.01
2013-10-9,42.0,37.1,35.0,37.0,33.5,31.0,90,87,76,29.64,28.95,4,2,11,0.09
2013-10-10,42.0,33.6,26.0,34.0,29.6,23.0,91,86,71,29.67,29.58,1,0,4,0.03
2013-10-11,48.0,35.6,30.0,35.0,30.6,27.0,91,82,59,29.79,29.63,2,0,3,0.00
2013-10-12,54.0,40.6,31.0,37.0,32.4,28.0,89,74,49,29.76,29.64,1,0,5,0.00
2013-10-13,48.0,43.8,39.0,37.0,33.3,30.0,87,67,55,29.65,29.36,4,0,10,0.10
2013-10-14,46.0,37.5,32.0,39.0,34.2,30.0,92,88,73,29.88,29.51,4,0,10,0.15
2013-10-15,48.0,40.0,34.0,40.0,36.3,31.0,91,86,74,29.88,29.78,1,0,3,0.02
2013-10-16,54.0,46.2,41.0,43.0,40.5,38.0,90,81,61,30.03,29.84,1,0,3,0.03
2013-10-17,50.0,45.8,42.0,47.0,41.0,37.0,90,83,73,29.94,29.65,0,0,2,0.04
2013-10-18,57.0,44.3,37.0,40.0,36.6,31.0,88,75,48,29.65,29.52,3,0,6,0.01
2013-10-19,57.0,44.5,35.0,37.0,31.6,-99.9,85,63,45,29.53,29.26,6,1,11,0.00
2013-10-20,51.0,39.0,31.0,35.0,31.5,28.0,88,75,49,29.84,29.52,2,0,3,0.00
2013-10-21,41.0,31.6,26.0,30.0,26.6,22.0,89,81,63,30.04,29.83,0,0,3,0.00
2013-10-22,26.0,25.5,25.0,22.0,21.5,21.0,86,86,85,30.05,30.04,0,0,0,0.00
2013-10-27,40.0,38.2,35.0,36.0,30.0,26.0,90,73,62,30.00,29.59,1,0,3,0.07
2013-10-28,53.0,43.6,39.0,41.0,36.9,-99.9,90,80,62,29.62,28.98,2,0,6,0.09
2013-10-29,40.0,35.0,27.0,37.0,32.3,24.0,91,90,85,29.47,29.20,4,1,8,0.33
2013-10-30,32.0,27.9,25.0,30.0,25.2,22.0,91,90,89,29.44,29.13,0,0,1,0.01
2013-10-31,28.0,25.4,18.0,25.0,22.4,15.0,90,89,85,29.64,29.19,0,0,3,0.00
2013-11-1,28.0,26.2,25.0,25.0,23.1,22.0,90,89,85,30.04,29.62,1,0,3,0.00
2013-11-2,29.0,23.1,19.0,25.0,19.1,-99.9,90,86,83,30.04,29.74,0,0,2,0.00
2013-11-3,32.0,23.3,18.0,27.0,20.1,15.0,90,87,83,29.77,29.55,0,0,1,0.00
2013-11-4,32.0,23.1,18.0,27.0,19.5,14.0,89,86,78,29.56,29.38,0,0,1,0.00
2013-11-5,24.0,20.0,15.0,20.0,16.6,11.0,89,86,81,30.15,29.44,1,0,4,0.00
2013-11-6,20.0,13.4,5.0,16.0,8.8,0.0,85,82,76,30.26,30.06,1,0,2,0.00
2013-11-7,15.0,5.1,1.0,9.0,-0.0,-4.0,84,79,73,30.07,29.84,0,0,1,0.00
2013-11-8,14.0,4.2,-5.0,11.0,-0.3,-10.0,86,81,76,30.15,29.91,0,0,2,0.00
2013-11-9,25.0,21.2,11.0,22.0,17.1,-99.9,89,86,83,30.05,29.67,1,0,2,0.00
2013-11-10,30.0,26.8,21.0,28.0,24.0,17.0,91,89,87,29.85,29.67,1,0,2,0.00
2013-11-11,21.0,12.7,3.0,18.0,9.0,-1.0,88,85,80,30.25,29.83,0,0,1,0.00
2013-11-12,13.0,8.1,3.0,9.0,3.9,-2.0,94,83,79,30.25,29.98,0,0,1,0.00
2013-11-13,41.0,18.4,10.0,36.0,15.4,6.0,92,87,83,30.00,29.56,7,0,18,0.00
2013-11-14,42.0,31.6,19.0,35.0,26.6,12.0,90,82,70,30.01,29.55,11,4,26,0.23
2013-11-15,19.0,9.0,1.0,13.0,4.6,-4.0,84,82,76,30.08,29.97,2,0,6,0.01
2013-11-16,12.0,7.5,-4.0,8.0,2.5,-99.9,85,82,77,30.29,30.00,0,0,1,0.00
2013-11-17,2.0,-1.0,-8.0,-2.0,-5.4,-13.0,82,80,76,30.36,30.27,0,0,0,0.00
2013-11-18,3.0,1.3,-1.0,-1.0,-3.0,-6.0,82,81,78,30.27,30.11,0,0,0,0.00
2013-11-19,3.0,-4.3,-15.0,-1.0,-9.4,-21.0,82,78,74,30.11,30.04,0,0,0,0.00
2013-11-20,-15.0,-21.2,-24.0,-21.0,-27.2,-30.0,75,72,71,30.27,30.09,0,0,0,0.00
2013-11-21,3.0,-14.8,-24.0,-2.0,-20.3,-30.0,82,75,71,30.23,29.49,0,0,0,0.00
2013-11-22,15.0,9.6,2.0,11.0,5.6,-2.0,85,83,81,29.53,29.17,0,0,0,0.00
2013-11-23,7.0,3.8,0.0,4.0,-1.1,-99.9,90,81,78,29.85,29.35,0,0,0,0.00
2013-11-24,17.0,11.7,5.0,14.0,8.2,1.0,87,85,83,29.98,29.85,0,0,0,0.00
2013-11-25,13.0,7.4,1.0,10.0,3.4,-4.0,86,83,80,30.01,29.88,0,0,0,0.00
2013-11-26,8.0,3.2,-4.0,4.0,-1.2,-9.0,84,82,78,30.00,29.89,0,0,0,0.00
2013-11-27,4.0,2.6,-4.0,2.0,-1.6,-9.0,92,81,79,29.99,29.81,0,0,0,0.00
2013-11-28,2.0,-3.3,-9.0,-2.0,-8.2,-14.0,81,79,76,29.98,29.79,0,0,0,0.00
2013-11-29,-3.0,-8.2,-13.0,-8.0,-13.3,-19.0,89,78,74,30.27,29.98,0,0,0,0.00
2013-11-30,-8.0,-15.2,-21.0,-13.0,-21.7,-99.9,78,74,71,30.66,30.27,0,0,1,0.00
2013-12-1,-13.0,-18.9,-23.0,-19.0,-24.8,-29.0,85,74,72,30.70,30.65,0,0,1,0.00
2013-12-2,0.0,-12.0,-19.0,-4.0,-17.4,-25.0,81,76,73,30.70,30.61,0,0,1,0.00
2013-12-3,8.0,3.7,-5.0,4.0,-0.5,-10.0,84,82,78,30.65,30.50,0,0,1,0.00
2013-12-4,12.0,3.2,-2.0,8.0,-1.1,-7.0,85,82,79,30.51,30.38,0,0,1,0.00
2013-12-5,22.0,15.0,8.0,19.0,11.5,4.0,89,86,84,30.42,30.34,0,0,2,0.00
2013-12-6,25.0,22.8,20.0,22.0,19.6,17.0,89,87,83,30.42,30.34,0,0,1,0.00
2013-12-7,28.0,25.3,21.0,25.0,21.7,-99.9,91,88,86,30.36,30.22,0,0,1,0.00
2013-12-8,31.0,28.5,23.0,29.0,26.4,20.0,92,91,89,30.31,30.16,0,0,0,0.00
2013-12-9,31.0,28.8,26.0,29.0,26.8,23.0,92,92,90,30.19,30.07,0,0,0,0.00
2013-12-10,26.0,13.6,6.0,24.0,9.0,0.0,91,81,73,30.30,30.07,0,0,3,0.00
2013-12-11,8.0,4.8,3.0,1.0,-4.1,-8.0,75,66,60,30.27,30.00,3,1,9,0.00
2013-12-12,4.0,2.3,1.0,-6.0,-8.9,-11.0,70,59,54,30.01,29.79,4,1,12,0.00
2013-12-13,3.0,-5.4,-13.0,-6.0,-12.5,-19.0,77,71,61,29.79,29.24,1,0,4,0.00
2013-12-14,1.0,-0.9,-3.0,-4.0,-6.8,-99.9,80,78,72,29.32,29.13,0,0,2,0.00
2013-12-15,-2.0,-7.1,-16.0,-7.0,-13.0,-23.0,79,75,72,30.12,29.31,0,0,2,0.00
2013-12-16,-16.0,-24.1,-30.0,-22.0,-30.3,-36.0,73,71,68,30.31,30.12,0,0,1,0.00
2013-12-17,-7.0,-16.9,-25.0,-12.0,-22.7,-31.0,78,74,71,30.32,30.29,0,0,0,0.00
2013-12-18,-1.0,-6.1,-12.0,-6.0,-11.1,-18.0,80,78,75,30.30,29.77,0,0,0,0.00
2013-12-19,4.0,0.6,-7.0,0.0,-3.7,-12.0,92,81,79,29.78,29.70,0,0,0,0.03
2013-12-20,7.0,3.4,0.0,3.0,-0.6,-4.0,92,82,80,29.73,29.59,0,0,0,0.03
2013-12-21,15.0,9.6,2.0,12.0,5.2,-99.9,86,84,81,29.65,29.55,0,0,1,0.00
2013-12-22,13.0,8.7,3.0,10.0,4.7,-1.0,86,84,80,29.77,29.48,2,0,6,0.00
2013-12-23,9.0,0.4,-6.0,4.0,-4.6,-11.0,81,79,75,30.14,29.75,3,0,7,0.00
2013-12-24,-2.0,-10.3,-15.0,-7.0,-15.5,-21.0,79,77,73,30.16,29.96,0,0,1,0.00
2013-12-25,-15.0,-24.2,-28.0,-21.0,-30.2,-34.0,74,71,69,29.98,29.93,0,0,1,0.00
2013-12-26,-23.0,-28.7,-32.0,-29.0,-35.0,-39.0,73,70,68,30.05,29.97,0,0,0,0.00
2013-12-27,-15.0,-20.2,-23.0,-20.0,-26.0,-29.0,76,74,73,30.10,30.04,0,0,1,0.00
2013-12-28,5.0,-3.1,-15.0,1.0,-8.4,-99.9,83,79,76,30.08,29.97,0,0,1,0.00
2013-12-29,7.0,-0.4,-3.0,3.0,-4.9,-8.0,92,81,80,30.04,29.88,0,0,0,0.00
2013-12-30,-1.0,-2.7,-4.0,-5.0,-7.5,-9.0,81,80,80,29.88,29.65,0,0,0,0.00
2013-12-31,7.0,-0.7,-2.0,2.0,-4.9,-7.0,83,81,80,29.74,29.46,0,0,0,0.00
2014-1-1,20.0,15.0,6.0,17.0,11.7,2.0,88,86,83,29.46,29.23,0,0,2,0.00
2014-1-2,9.0,6.1,1.0,5.0,2.1,-3.0,84,83,82,30.03,29.47,0,0,1,0.00